Time;durP1;ratioP1;P1;durP2;ratioP2;P2;SDS_P1;SDS_P2;PMS_P1;PMS_P2;Temp;Humidity;BMP_temperature;BMP_pressure;BME280_temperature;BME280_humidity;BME280_pressure;Samples;Min_cycle;Max_cycle;Signal;HPM_P1;HPM_P2
2022/07/07 00:00:14;;;;;;;6.75;3.72;;;;;;;21.07;43.73;101377.59;693626;28;1296;-79
2022/07/07 00:00:35;;;;;;;7.20;3.70;;;;;;;21.12;43.60;101382.88;690443;28;1042;-79
2022/07/07 00:00:56;;;;;;;5.47;3.60;;;;;;;21.07;43.54;101375.84;687835;28;1154;-79
2022/07/07 00:01:16;;;;;;;4.85;3.50;;;;;;;21.04;43.76;101373.22;687676;28;1257;-79
2022/07/07 00:01:38;;;;;;;4.82;3.45;;;;;;;21.09;43.63;101375.84;687714;28;1218;-79
2022/07/07 00:01:59;;;;;;;4.68;3.20;;;;;;;21.00;43.42;101366.16;687735;28;1631;-79
2022/07/07 00:02:21;;;;;;;5.32;3.50;;;;;;;21.09;43.67;101375.84;687243;28;1226;-79
2022/07/07 00:02:41;;;;;;;5.35;3.50;;;;;;;21.06;43.87;101375.84;690510;28;1193;-80
2022/07/07 00:03:02;;;;;;;5.03;3.45;;;;;;;21.08;43.71;101374.94;693254;28;1012;-80
2022/07/07 00:03:23;;;;;;;4.80;3.33;;;;;;;21.10;43.57;101378.47;687730;28;1273;-80
2022/07/07 00:03:43;;;;;;;4.70;3.50;;;;;;;21.12;43.43;101380.22;685051;28;1480;-79
2022/07/07 00:04:04;;;;;;;4.65;3.70;;;;;;;21.09;43.69;101374.06;692942;28;1079;-79
2022/07/07 00:04:25;;;;;;;4.57;3.58;;;;;;;21.06;43.71;101371.44;695722;28;1192;-79
2022/07/07 00:04:46;;;;;;;4.80;3.40;;;;;;;21.07;43.76;101373.19;693284;28;1184;-79
2022/07/07 00:05:08;;;;;;;3.97;3.10;;;;;;;21.05;43.59;101368.78;690357;28;1910;-79
2022/07/07 00:05:28;;;;;;;4.50;3.00;;;;;;;21.06;43.76;101370.53;684364;28;1064;-79
2022/07/07 00:05:49;;;;;;;4.50;3.30;;;;;;;21.06;43.60;101370.53;687895;28;858;-79
2022/07/07 00:06:09;;;;;;;4.43;3.40;;;;;;;21.03;43.66;101366.13;690356;28;1225;-80
2022/07/07 00:06:30;;;;;;;4.60;3.40;;;;;;;21.04;43.83;101369.69;690404;28;982;-79
2022/07/07 00:06:51;;;;;;;4.68;3.10;;;;;;;21.06;43.79;101366.13;690550;28;1321;-79
2022/07/07 00:07:12;;;;;;;4.43;3.25;;;;;;;21.05;43.55;101374.09;687810;28;993;-80
2022/07/07 00:07:33;;;;;;;4.95;3.40;;;;;;;21.12;43.66;101373.16;690159;28;1235;-80
2022/07/07 00:07:54;;;;;;;7.35;3.50;;;;;;;21.08;43.82;101372.28;687101;28;1399;-79
2022/07/07 00:08:16;;;;;;;6.90;3.40;;;;;;;21.05;43.74;101364.38;684933;28;1374;-79
2022/07/07 00:08:37;;;;;;;6.80;3.60;;;;;;;21.04;43.55;101361.72;687622;28;1443;-79
2022/07/07 00:08:58;;;;;;;5.28;3.70;;;;;;;21.07;43.77;101370.53;690507;28;859;-80
2022/07/07 00:09:18;;;;;;;6.70;3.70;;;;;;;21.06;43.77;101365.22;690431;28;1201;-79
2022/07/07 00:09:39;;;;;;;6.90;3.50;;;;;;;21.07;43.70;101366.97;687330;28;1281;-79
2022/07/07 00:10:00;;;;;;;6.72;3.50;;;;;;;21.06;43.66;101358.16;690317;28;1170;-79
2022/07/07 00:10:21;;;;;;;6.30;3.50;;;;;;;21.09;43.71;101368.75;687652;28;1366;-80
2022/07/07 00:10:42;;;;;;;6.75;3.70;;;;;;;21.05;43.79;101359.06;685334;28;1288;-79
2022/07/07 00:11:03;;;;;;;6.35;3.60;;;;;;;21.08;43.57;101366.97;687850;28;1142;-79
2022/07/07 00:11:27;;;;;;;6.50;3.50;;;;;;;21.06;43.62;101366.13;687624;28;1380;-79
2022/07/07 00:11:48;;;;;;;6.50;3.60;;;;;;;21.05;43.78;101359.06;693132;28;1143;-80
2022/07/07 00:12:09;;;;;;;5.80;3.80;;;;;;;21.08;43.78;101361.69;690306;28;1061;-79
2022/07/07 00:12:30;;;;;;;4.50;3.80;;;;;;;21.12;43.76;101369.59;687643;28;1370;-79
2022/07/07 00:12:50;;;;;;;4.27;3.63;;;;;;;21.07;43.93;101356.38;690566;28;839;-79
2022/07/07 00:13:11;;;;;;;6.70;3.70;;;;;;;21.10;43.70;101362.53;695993;28;1363;-79
2022/07/07 00:13:32;;;;;;;7.15;3.85;;;;;;;21.05;43.96;101352.84;693304;28;1060;-79
2022/07/07 00:13:53;;;;;;;7.60;3.75;;;;;;;21.12;43.80;101364.31;695497;28;1331;-80
2022/07/07 00:14:14;;;;;;;7.20;3.80;;;;;;;21.07;43.78;101356.38;690325;28;1209;-79
2022/07/07 00:14:35;;;;;;;7.88;3.70;;;;;;;21.12;43.76;101359.00;687697;28;1639;-79
2022/07/07 00:14:56;;;;;;;6.20;3.55;;;;;;;21.06;43.92;101360.81;691800;28;1340;-80
2022/07/07 00:15:17;;;;;;;4.43;3.33;;;;;;;21.13;43.75;101360.78;689977;28;1254;-79
2022/07/07 00:15:38;;;;;;;4.65;3.50;;;;;;;21.09;43.84;101359.91;687681;28;1175;-80
2022/07/07 00:15:59;;;;;;;5.80;3.63;;;;;;;21.09;43.79;101344.88;687334;28;1094;-80
2022/07/07 00:16:20;;;;;;;6.13;3.72;;;;;;;21.14;43.62;101351.94;684897;28;1183;-79
2022/07/07 00:16:40;;;;;;;4.72;3.53;;;;;;;21.12;43.74;101362.53;687736;28;1232;-80
2022/07/07 00:17:02;;;;;;;4.55;3.67;;;;;;;21.12;43.79;101353.69;690474;28;1350;-79
2022/07/07 00:17:23;;;;;;;5.82;3.85;;;;;;;21.18;43.62;101358.97;687685;28;1015;-80
2022/07/07 00:17:44;;;;;;;7.70;4.05;;;;;;;21.09;43.88;101352.81;690594;28;823;-80
2022/07/07 00:18:05;;;;;;;7.78;4.10;;;;;;;21.13;43.92;101356.34;687622;28;1129;-80
2022/07/07 00:18:25;;;;;;;6.10;3.87;;;;;;;21.10;43.90;101346.63;687691;28;1182;-79
2022/07/07 00:18:47;;;;;;;5.10;4.20;;;;;;;21.14;43.88;101357.22;690468;28;1131;-79
2022/07/07 00:19:08;;;;;;;5.05;4.10;;;;;;;21.10;43.65;101351.06;684996;28;1196;-80
2022/07/07 00:19:29;;;;;;;5.20;4.07;;;;;;;21.09;43.79;101344.00;690162;28;937;-80
2022/07/07 00:19:50;;;;;;;5.10;3.65;;;;;;;21.15;43.88;101348.38;690299;28;1234;-79
2022/07/07 00:20:12;;;;;;;4.47;3.60;;;;;;;21.14;43.91;101350.13;690524;28;1049;-80
2022/07/07 00:20:32;;;;;;;5.03;3.75;;;;;;;21.06;43.74;101342.25;687107;28;1227;-80
2022/07/07 00:20:53;;;;;;;5.17;3.50;;;;;;;21.09;43.95;101352.81;693224;28;747;-79
2022/07/07 00:21:14;;;;;;;5.50;3.50;;;;;;;21.11;43.97;101350.16;692312;28;1205;-80
2022/07/07 00:21:35;;;;;;;10.45;3.70;;;;;;;21.15;43.95;101353.69;686896;28;1514;-79
2022/07/07 00:21:56;;;;;;;11.55;4.00;;;;;;;21.17;43.85;101360.75;688504;28;854;-79
2022/07/07 00:22:16;;;;;;;11.27;4.05;;;;;;;21.12;43.82;101343.06;693087;28;1133;-79
2022/07/07 00:22:37;;;;;;;6.80;3.83;;;;;;;21.20;43.88;101362.47;693091;28;1248;-79
2022/07/07 00:22:58;;;;;;;6.05;3.60;;;;;;;21.18;44.01;101356.31;687822;28;1351;-79
2022/07/07 00:23:19;;;;;;;4.43;3.45;;;;;;;21.14;43.85;101351.94;687520;28;1316;-78
2022/07/07 00:23:41;;;;;;;4.43;3.50;;;;;;;21.18;43.84;101358.97;687802;28;709;-79
2022/07/07 00:24:02;;;;;;;4.43;3.70;;;;;;;21.14;43.82;101351.94;687391;28;1584;-79
2022/07/07 00:24:23;;;;;;;4.53;3.90;;;;;;;21.18;44.05;101348.34;687942;28;1106;-79
2022/07/07 00:24:44;;;;;;;5.68;4.30;;;;;;;21.14;43.70;101351.94;688097;28;1191;-79
2022/07/07 00:25:07;;;;;;;5.32;4.00;;;;;;;21.18;43.93;101349.25;693685;28;1197;-79
2022/07/07 00:25:27;;;;;;;4.97;3.85;;;;;;;21.13;44.02;101339.56;690738;28;1922;-80
2022/07/07 00:25:48;;;;;;;4.03;3.63;;;;;;;21.13;43.99;101347.50;688345;28;665;-79
2022/07/07 00:26:09;;;;;;;6.90;3.95;;;;;;;21.20;43.74;101347.44;688044;28;1241;-79
2022/07/07 00:26:31;;;;;;;8.88;4.10;;;;;;;21.15;43.92;101343.06;688163;28;1090;-79
2022/07/07 00:26:52;;;;;;;9.15;4.18;;;;;;;21.17;43.87;101341.28;688268;28;795;-80
2022/07/07 00:27:12;;;;;;;6.63;3.70;;;;;;;21.20;43.93;101344.78;690435;28;1068;-80
2022/07/07 00:27:33;;;;;;;4.87;3.20;;;;;;;21.20;43.82;101354.50;690894;28;1248;-80
2022/07/07 00:27:54;;;;;;;4.30;3.20;;;;;;;21.10;44.01;101336.00;690910;28;1199;-81
2022/07/07 00:28:14;;;;;;;4.80;3.40;;;;;;;21.19;43.93;101350.09;690895;28;1134;-79
2022/07/07 00:28:35;;;;;;;4.40;3.57;;;;;;;21.19;44.04;101355.41;691002;28;1123;-79
2022/07/07 00:28:56;;;;;;;4.25;3.55;;;;;;;21.11;43.95;101350.16;688341;28;836;-79
2022/07/07 00:29:16;;;;;;;5.00;3.50;;;;;;;21.14;43.92;101341.31;690939;28;1633;-80
2022/07/07 00:29:37;;;;;;;5.82;3.60;;;;;;;21.12;43.87;101337.75;689944;28;1232;-81
2022/07/07 00:29:58;;;;;;;6.63;3.83;;;;;;;21.19;44.05;101350.09;688017;28;1067;-80
2022/07/07 00:30:19;;;;;;;6.13;4.00;;;;;;;21.18;43.94;101358.97;690837;28;1194;-79
2022/07/07 00:30:39;;;;;;;5.30;4.00;;;;;;;21.18;44.01;101345.69;688250;28;1188;-79
2022/07/07 00:31:00;;;;;;;4.30;3.90;;;;;;;21.16;44.11;101351.03;690141;28;1271;-79
2022/07/07 00:31:21;;;;;;;4.38;3.80;;;;;;;21.19;43.97;101348.34;690924;28;1275;-80
2022/07/07 00:31:42;;;;;;;4.30;3.80;;;;;;;21.17;44.11;101341.28;688239;28;1305;-79
2022/07/07 00:32:03;;;;;;;6.72;4.10;;;;;;;21.07;44.11;101335.16;693249;28;1230;-80
2022/07/07 00:32:25;;;;;;;7.07;4.18;;;;;;;21.13;44.11;101355.47;696226;28;1252;-79
2022/07/07 00:32:46;;;;;;;6.35;3.97;;;;;;;21.17;44.06;101354.53;691110;28;1354;-80
2022/07/07 00:33:06;;;;;;;4.32;3.80;;;;;;;21.15;43.93;101348.38;690852;28;1224;-80
2022/07/07 00:33:27;;;;;;;4.45;3.92;;;;;;;21.17;44.01;101346.59;690333;28;1223;-79
2022/07/07 00:33:48;;;;;;;4.68;4.00;;;;;;;21.17;44.18;101349.25;693708;28;847;-79
2022/07/07 00:34:09;;;;;;;4.18;3.72;;;;;;;21.17;44.29;101349.25;686884;28;1247;-79
2022/07/07 00:34:30;;;;;;;4.70;3.80;;;;;;;21.16;44.24;101339.53;685287;28;1263;-79
2022/07/07 00:34:50;;;;;;;4.75;3.90;;;;;;;21.17;44.25;101336.88;690489;28;1307;-79
2022/07/07 00:35:11;;;;;;;5.65;3.80;;;;;;;21.20;44.30;101351.84;693618;28;1258;-79
2022/07/07 00:35:32;;;;;;;4.80;3.60;;;;;;;21.19;44.18;101361.63;696256;28;1315;-79
2022/07/07 00:35:53;;;;;;;4.60;3.50;;;;;;;21.22;44.29;101356.25;693189;28;1024;-79
2022/07/07 00:36:14;;;;;;;4.50;3.50;;;;;;;21.17;44.31;101349.25;689870;28;1336;-80
2022/07/07 00:36:36;;;;;;;4.55;3.50;;;;;;;21.15;44.51;101343.06;688093;28;1132;-80
2022/07/07 00:36:57;;;;;;;5.18;3.72;;;;;;;21.18;44.55;101358.97;688348;28;807;-79
2022/07/07 00:37:17;;;;;;;4.50;3.83;;;;;;;21.13;44.72;101350.16;688248;28;1117;-79
2022/07/07 00:37:38;;;;;;;6.90;4.03;;;;;;;21.18;44.81;101349.25;690796;28;1163;-79
2022/07/07 00:37:59;;;;;;;6.93;3.80;;;;;;;21.17;44.92;101351.88;690332;28;1214;-79
2022/07/07 00:38:30;;;;;;;6.78;3.95;;;;;;;21.16;44.97;101356.34;690765;28;1227;-80
2022/07/07 00:38:51;;;;;;;7.40;4.30;;;;;;;21.06;45.20;101341.34;688173;28;1129;-79
2022/07/07 00:39:13;;;;;;;7.87;4.30;;;;;;;21.19;44.99;101355.41;688322;28;1001;-80
2022/07/07 00:39:33;;;;;;;8.40;4.18;;;;;;;21.11;44.96;101347.53;687679;28;1218;-79
2022/07/07 00:39:54;;;;;;;5.40;3.80;;;;;;;21.09;44.98;101346.66;688036;28;1146;-79
2022/07/07 00:40:15;;;;;;;5.87;3.67;;;;;;;21.12;45.04;101340.41;685520;28;1021;-80
2022/07/07 00:40:35;;;;;;;8.77;3.70;;;;;;;21.12;45.18;101351.03;685291;28;1053;-79
2022/07/07 00:40:56;;;;;;;9.10;3.88;;;;;;;21.12;44.93;101343.97;687817;28;1312;-79
2022/07/07 00:41:17;;;;;;;9.00;3.80;;;;;;;21.05;45.05;101332.53;685037;28;1376;-80
2022/07/07 00:41:38;;;;;;;5.83;3.80;;;;;;;21.09;44.96;101342.22;693466;28;1162;-80
2022/07/07 00:41:58;;;;;;;4.93;3.55;;;;;;;21.14;44.98;101352.78;688371;28;1249;-80
2022/07/07 00:42:19;;;;;;;4.30;3.67;;;;;;;21.06;45.02;101344.91;690591;28;1220;-80
2022/07/07 00:42:40;;;;;;;4.32;3.63;;;;;;;21.08;44.99;101332.50;691364;28;787;-80
2022/07/07 00:43:00;;;;;;;5.27;3.70;;;;;;;21.06;45.04;101339.59;693945;28;704;-80
2022/07/07 00:43:21;;;;;;;4.85;3.60;;;;;;;21.04;45.07;101336.06;693589;28;1307;-79
2022/07/07 00:43:43;;;;;;;5.05;3.70;;;;;;;21.13;45.02;101352.81;693685;28;791;-79
2022/07/07 00:44:06;;;;;;;4.70;3.90;;;;;;;21.13;45.21;101348.38;695771;28;1805;-79
2022/07/07 00:44:26;;;;;;;4.60;4.00;;;;;;;21.08;45.09;101343.09;685394;28;1240;-79
2022/07/07 00:44:47;;;;;;;4.70;4.00;;;;;;;21.04;45.31;101335.19;688216;28;1405;-80
2022/07/07 00:45:08;;;;;;;5.03;4.03;;;;;;;21.08;45.30;101348.41;688128;28;1316;-80
2022/07/07 00:45:49;;;;;;;6.65;4.40;;;;;;;21.10;45.23;101351.94;682534;28;1934;-80
2022/07/07 00:46:11;;;;;;;6.60;4.10;;;;;;;21.13;45.40;101355.47;687923;28;993;-80
2022/07/07 00:46:42;;;;;;;6.47;3.90;;;;;;;21.05;45.33;101351.09;687715;28;1482;-80
2022/07/07 00:47:05;;;;;;;7.30;4.10;;;;;;;21.02;45.66;101345.78;693491;28;1566;-79
2022/07/07 00:47:27;;;;;;;5.72;3.90;;;;;;;20.97;45.62;101347.63;690827;28;1138;-81
2022/07/07 00:47:47;;;;;;;4.20;3.80;;;;;;;20.97;45.80;101342.31;688272;28;1182;-79
2022/07/07 00:48:08;;;;;;;4.25;3.85;;;;;;;21.00;45.65;101347.59;687631;28;1300;-80
2022/07/07 00:48:31;;;;;;;4.90;3.80;;;;;;;20.94;45.76;101339.66;688076;28;1076;-80
2022/07/07 00:48:52;;;;;;;7.05;4.15;;;;;;;20.97;45.67;101342.31;687702;28;1293;-79
2022/07/07 00:49:14;;;;;;;6.60;4.40;;;;;;;21.04;45.83;101354.66;687487;28;1193;-80
2022/07/07 00:49:35;;;;;;;7.13;4.47;;;;;;;21.00;45.86;101350.25;684980;28;1359;-80
2022/07/07 00:49:56;;;;;;;6.55;4.03;;;;;;;21.01;45.95;101346.69;687919;28;815;-81
2022/07/07 00:50:17;;;;;;;6.80;4.10;;;;;;;21.00;45.98;101344.03;693504;28;1058;-79
2022/07/07 00:50:37;;;;;;;5.07;3.77;;;;;;;20.96;45.93;101345.81;693569;28;1416;-81
2022/07/07 00:50:58;;;;;;;5.00;3.90;;;;;;;21.02;46.26;101353.75;690955;28;756;-80
2022/07/07 00:51:19;;;;;;;5.15;3.50;;;;;;;21.01;46.05;101346.69;690761;28;1084;-81
2022/07/07 00:51:41;;;;;;;6.70;3.80;;;;;;;21.06;46.04;101352.84;688220;28;787;-81
2022/07/07 00:52:02;;;;;;;7.63;3.83;;;;;;;21.00;46.00;101339.63;687949;28;1174;-79
2022/07/07 00:52:23;;;;;;;6.30;4.00;;;;;;;21.00;46.19;101339.63;693453;28;977;-80
2022/07/07 00:52:44;;;;;;;5.45;4.10;;;;;;;20.99;46.35;101343.16;687765;28;1245;-80
2022/07/07 00:53:05;;;;;;;5.88;4.20;;;;;;;20.95;46.13;101344.06;685520;28;1030;-80
2022/07/07 00:53:26;;;;;;;5.90;4.07;;;;;;;20.92;46.44;101336.13;685384;28;1301;-80
2022/07/07 00:53:47;;;;;;;5.07;4.00;;;;;;;20.90;46.54;101332.63;685025;28;1174;-80
2022/07/07 00:54:09;;;;;;;4.75;4.13;;;;;;;20.87;46.55;101328.22;687247;28;1539;-80
2022/07/07 00:54:56;;;;;;;5.15;4.30;;;;;;;20.95;46.85;101355.56;687751;28;1320;-80
2022/07/07 00:55:16;;;;;;;6.60;3.78;;;;;;;20.88;46.97;101345.00;689947;28;1148;-79
2022/07/07 00:55:38;;;;;;;6.93;3.80;;;;;;;20.85;47.11;101339.72;690799;28;1377;-80
2022/07/07 00:56:00;;;;;;;3.95;3.50;;;;;;;20.81;47.22;101337.09;693517;28;1036;-80
2022/07/07 00:56:21;;;;;;;4.82;3.78;;;;;;;20.85;47.11;101340.63;690619;28;1272;-80
2022/07/07 00:56:42;;;;;;;4.70;3.80;;;;;;;20.86;47.17;101341.47;690815;28;1411;-80
2022/07/07 00:57:05;;;;;;;5.93;4.05;;;;;;;20.76;47.37;101330.03;689323;28;1268;-80
2022/07/07 00:57:26;;;;;;;5.60;3.90;;;;;;;20.78;47.59;101337.09;690249;28;1358;-79
2022/07/07 00:57:47;;;;;;;6.10;3.80;;;;;;;20.78;47.82;101337.09;685445;28;1327;-81
2022/07/07 00:58:08;;;;;;;6.75;3.80;;;;;;;20.79;47.92;101341.50;685466;28;1417;-80
2022/07/07 00:58:47;;;;;;;6.00;3.80;;;;;;;20.77;48.16;101339.78;687890;28;1122;-80
2022/07/07 00:59:08;;;;;;;4.30;3.90;;;;;;;20.65;48.39;101333.59;690618;28;1350;-80
2022/07/07 00:59:29;;;;;;;4.40;3.90;;;;;;;20.66;48.56;101331.84;687751;28;1236;-80
2022/07/07 00:59:49;;;;;;;4.35;3.70;;;;;;;20.63;48.50;101335.38;682636;28;1178;-80
2022/07/07 01:00:14;;;;;;;4.83;3.57;;;;;;;20.61;48.65;101328.31;688208;28;970;-79
2022/07/07 01:00:34;;;;;;;6.78;3.70;;;;;;;20.53;48.66;101323.94;687591;28;1967;-78
2022/07/07 01:00:55;;;;;;;8.50;3.90;;;;;;;20.54;48.92;101325.69;688192;28;760;-79
2022/07/07 01:01:16;;;;;;;8.85;4.20;;;;;;;20.61;48.95;101336.28;685457;28;1136;-78
2022/07/07 01:01:39;;;;;;;7.47;4.60;;;;;;;20.60;48.89;101329.22;687987;28;1174;-79
2022/07/07 01:02:01;;;;;;;6.13;4.57;;;;;;;20.59;49.01;101330.09;688225;28;842;-79
2022/07/07 01:02:22;;;;;;;5.28;4.13;;;;;;;20.53;49.29;101313.34;690653;28;1365;-80
2022/07/07 01:02:43;;;;;;;5.00;3.88;;;;;;;20.53;49.17;101321.28;690774;28;1202;-79
2022/07/07 01:03:03;;;;;;;4.80;3.70;;;;;;;20.52;49.25;101314.22;693657;28;1158;-79
2022/07/07 01:03:24;;;;;;;4.87;3.70;;;;;;;20.57;49.60;101318.63;688055;28;1267;-79
2022/07/07 01:04:03;;;;;;;6.10;3.60;;;;;;;20.60;49.68;101323.91;690873;28;760;-79
2022/07/07 01:04:24;;;;;;;5.00;3.60;;;;;;;20.54;49.77;101317.75;689871;28;1050;-80
2022/07/07 01:04:45;;;;;;;4.88;3.90;;;;;;;20.52;49.91;101313.34;690836;28;1239;-80
2022/07/07 01:05:08;;;;;;;5.00;4.10;;;;;;;20.58;49.62;101317.75;690679;28;1112;-80
2022/07/07 01:05:32;;;;;;;5.13;4.03;;;;;;;20.53;49.66;101307.16;693518;28;1978;-79
2022/07/07 01:05:53;;;;;;;4.85;3.95;;;;;;;20.54;49.69;101308.94;693484;28;1039;-78
2022/07/07 01:06:16;;;;;;;4.82;3.67;;;;;;;20.52;49.94;101310.69;690795;28;1186;-79
2022/07/07 01:06:38;;;;;;;5.63;3.42;;;;;;;20.53;49.72;101307.16;690693;28;1353;-78
2022/07/07 01:07:01;;;;;;;6.03;3.40;;;;;;;20.46;49.70;101306.28;692364;28;1105;-79
2022/07/07 01:07:22;;;;;;;4.75;3.80;;;;;;;20.50;49.74;101313.38;687861;28;1358;-79
2022/07/07 01:07:43;;;;;;;5.55;4.00;;;;;;;20.49;49.67;101310.72;690840;28;1224;-79
2022/07/07 01:08:05;;;;;;;4.88;3.92;;;;;;;20.52;49.76;101319.53;689789;28;1393;-78
2022/07/07 01:08:26;;;;;;;4.95;3.80;;;;;;;20.52;49.74;101311.56;690777;28;1172;-79
2022/07/07 01:08:47;;;;;;;4.47;3.75;;;;;;;20.45;49.86;101301.88;690811;28;1312;-79
2022/07/07 01:09:08;;;;;;;4.43;3.47;;;;;;;20.54;49.87;101315.09;690867;28;1056;-79
2022/07/07 01:09:29;;;;;;;4.60;3.20;;;;;;;20.53;50.05;101308.03;690439;28;1204;-79
2022/07/07 01:09:51;;;;;;;5.90;3.50;;;;;;;20.46;50.06;101287.75;687900;28;1028;-79
2022/07/07 01:10:11;;;;;;;5.80;3.60;;;;;;;20.53;49.97;101308.03;687604;28;1283;-78
2022/07/07 01:10:32;;;;;;;5.85;3.60;;;;;;;20.44;50.15;101294.81;685439;28;959;-79
2022/07/07 01:10:53;;;;;;;5.00;3.58;;;;;;;20.49;50.48;101308.94;690856;28;1352;-79
2022/07/07 01:11:14;;;;;;;4.82;3.50;;;;;;;20.46;50.44;101301.00;690796;28;1415;-79
2022/07/07 01:11:54;;;;;;;6.80;3.90;;;;;;;20.50;50.16;101305.41;690720;28;1212;-80
2022/07/07 01:12:15;;;;;;;5.75;4.00;;;;;;;20.41;50.12;101292.22;690621;28;1150;-79
2022/07/07 01:12:38;;;;;;;4.37;3.97;;;;;;;20.49;50.01;101308.06;690791;28;1201;-79
2022/07/07 01:13:02;;;;;;;5.43;4.40;;;;;;;20.39;49.97;101288.66;687597;28;1208;-79
2022/07/07 01:13:22;;;;;;;5.30;4.13;;;;;;;20.46;50.10;101300.13;690803;28;919;-79
2022/07/07 01:13:43;;;;;;;5.90;4.13;;;;;;;20.50;50.11;101302.75;690932;28;717;-79
2022/07/07 01:14:05;;;;;;;4.80;3.70;;;;;;;20.45;50.24;101293.94;688053;28;1255;-79
2022/07/07 01:14:26;;;;;;;7.05;4.03;;;;;;;20.46;50.13;101294.84;690872;28;996;-79
2022/07/07 01:14:47;;;;;;;6.85;4.00;;;;;;;20.47;50.34;101297.44;687717;28;1168;-79
2022/07/07 01:15:09;;;;;;;6.27;3.93;;;;;;;20.48;50.42;101303.66;688225;28;1005;-79
2022/07/07 01:15:30;;;;;;;4.30;3.70;;;;;;;20.43;50.43;101289.53;685410;28;1213;-79
2022/07/07 01:15:51;;;;;;;4.82;3.70;;;;;;;20.46;50.29;101301.00;690057;28;1284;-80
2022/07/07 01:16:12;;;;;;;4.87;3.73;;;;;;;20.44;50.29;101286.88;693571;28;992;-79
2022/07/07 01:16:32;;;;;;;6.03;3.70;;;;;;;20.41;50.49;101282.47;696095;28;1250;-79
2022/07/07 01:16:53;;;;;;;5.53;3.60;;;;;;;20.48;50.56;101301.88;693490;28;1263;-79
2022/07/07 01:17:14;;;;;;;5.97;3.70;;;;;;;20.46;50.56;101290.41;693504;28;1071;-79
2022/07/07 01:17:35;;;;;;;4.70;3.60;;;;;;;20.53;50.48;101300.06;690820;28;1234;-79
2022/07/07 01:17:56;;;;;;;4.88;3.75;;;;;;;20.53;50.63;101299.22;687602;28;1717;-78
2022/07/07 01:18:16;;;;;;;4.50;3.77;;;;;;;20.47;50.71;101289.50;685280;28;1136;-79
2022/07/07 01:18:37;;;;;;;4.78;3.80;;;;;;;20.50;50.62;101289.50;688051;28;1100;-79
2022/07/07 01:18:58;;;;;;;4.25;3.60;;;;;;;20.51;50.52;101291.25;689282;28;1083;-79
2022/07/07 01:19:20;;;;;;;4.50;3.43;;;;;;;20.54;50.49;101287.72;690178;28;1123;-79
2022/07/07 01:19:41;;;;;;;4.88;3.60;;;;;;;20.51;50.61;101288.63;693162;28;835;-79
2022/07/07 01:20:04;;;;;;;5.07;3.60;;;;;;;20.50;50.32;101286.84;690631;28;1311;-79
2022/07/07 01:20:27;;;;;;;4.50;3.45;;;;;;;20.57;50.59;101300.09;687989;28;1229;-79
2022/07/07 01:20:47;;;;;;;4.70;3.47;;;;;;;20.47;50.28;101281.53;688155;28;821;-79
2022/07/07 01:21:12;;;;;;;3.90;3.50;;;;;;;20.48;50.30;101287.75;688081;28;965;-79
2022/07/07 01:22:23;;;;;;;4.00;3.60;;;;;;;20.55;50.23;101295.63;690638;28;1323;-79
2022/07/07 01:22:50;;;;;;;6.03;3.80;;;;;;;20.50;50.04;101281.53;693183;28;1688;-79
2022/07/07 01:23:12;;;;;;;4.40;3.75;;;;;;;20.52;49.96;101290.38;689721;28;1340;-79
2022/07/07 01:23:33;;;;;;;4.13;3.70;;;;;;;20.52;50.30;101287.72;688166;28;1086;-78
2022/07/07 01:23:53;;;;;;;4.30;3.80;;;;;;;20.49;50.31;101284.19;688007;28;1229;-79
2022/07/07 01:24:14;;;;;;;4.00;3.60;;;;;;;20.56;50.09;101291.22;687987;28;1202;-78
2022/07/07 01:24:35;;;;;;;3.93;3.53;;;;;;;20.57;50.12;101293.00;687994;28;1095;-79
2022/07/07 01:24:56;;;;;;;4.20;3.50;;;;;;;20.52;50.09;101284.16;686344;28;1318;-79
2022/07/07 01:25:17;;;;;;;3.80;3.40;;;;;;;20.51;50.22;101277.09;687853;28;1911;-79
2022/07/07 01:25:37;;;;;;;3.72;3.40;;;;;;;20.53;49.96;101280.66;685359;28;1170;-79
2022/07/07 01:25:58;;;;;;;3.67;3.37;;;;;;;20.52;50.12;101274.47;688112;28;1129;-79
2022/07/07 01:26:19;;;;;;;4.10;3.70;;;;;;;20.59;49.98;101285.03;690625;28;1181;-80
2022/07/07 01:26:39;;;;;;;4.30;3.90;;;;;;;20.60;49.89;101289.44;688023;28;1142;-79
2022/07/07 01:27:14;;;;;;;4.90;4.10;;;;;;;20.57;49.65;101278.88;682803;28;1198;-79
2022/07/07 01:27:35;;;;;;;4.65;3.70;;;;;;;20.57;49.59;101271.78;685320;28;1323;-79
2022/07/07 01:27:55;;;;;;;4.85;3.58;;;;;;;20.61;49.54;101292.09;690763;28;1404;-79
2022/07/07 01:28:16;;;;;;;4.40;3.40;;;;;;;20.59;49.46;101274.44;685314;28;1169;-79
2022/07/07 01:28:36;;;;;;;4.60;3.50;;;;;;;20.62;49.36;101279.72;685245;28;1138;-79
2022/07/07 01:28:59;;;;;;;4.85;3.60;;;;;;;20.59;49.29;101277.94;687609;28;1377;-79
2022/07/07 01:29:19;;;;;;;4.30;3.40;;;;;;;20.61;48.92;101276.19;693365;28;1094;-79
2022/07/07 01:29:49;;;;;;;4.63;3.50;;;;;;;20.62;49.26;101275.28;695869;28;842;-79
2022/07/07 01:30:11;;;;;;;4.18;3.40;;;;;;;20.63;49.10;101276.16;693298;28;1363;-79
2022/07/07 01:30:32;;;;;;;4.10;3.70;;;;;;;20.65;49.01;101287.66;687963;28;963;-79
2022/07/07 01:30:53;;;;;;;5.10;3.60;;;;;;;20.59;48.92;101275.28;685364;28;1069;-79
2022/07/07 01:31:14;;;;;;;5.53;3.60;;;;;;;20.62;49.05;101282.34;692982;28;1349;-79
2022/07/07 01:31:35;;;;;;;5.50;3.40;;;;;;;20.60;49.12;101278.84;690580;28;1117;-79
2022/07/07 01:31:58;;;;;;;4.13;3.35;;;;;;;20.58;48.98;101277.97;690551;28;1466;-79
2022/07/07 01:32:20;;;;;;;3.70;3.22;;;;;;;20.63;48.88;101278.81;690631;28;1362;-78
2022/07/07 01:32:41;;;;;;;3.70;3.30;;;;;;;20.58;48.93;101272.69;688012;28;1099;-80
2022/07/07 01:33:02;;;;;;;4.00;3.50;;;;;;;20.65;48.75;101285.00;685241;28;1211;-79
2022/07/07 01:33:22;;;;;;;3.97;3.58;;;;;;;20.61;48.77;101277.94;685307;28;961;-79
2022/07/07 01:33:43;;;;;;;4.13;3.60;;;;;;;20.58;48.92;101283.28;688285;28;847;-79
2022/07/07 01:34:03;;;;;;;4.20;3.33;;;;;;;20.65;48.77;101288.53;690749;28;1209;-79
2022/07/07 01:34:25;;;;;;;4.93;3.40;;;;;;;20.61;48.74;101280.59;690746;28;1135;-79
2022/07/07 01:34:46;;;;;;;4.40;3.40;;;;;;;20.59;48.80;101275.28;688086;28;1153;-79
2022/07/07 01:35:09;;;;;;;4.13;3.37;;;;;;;20.62;48.80;101285.00;690404;28;1240;-80
2022/07/07 01:35:42;;;;;;;5.85;3.38;;;;;;;20.64;48.55;101284.13;684952;28;1262;-79
2022/07/07 01:36:03;;;;;;;7.40;3.70;;;;;;;20.67;48.58;101293.81;685210;28;1346;-80
2022/07/07 01:36:23;;;;;;;6.40;3.85;;;;;;;20.59;48.78;101277.09;687938;28;1122;-79
2022/07/07 01:36:44;;;;;;;4.80;3.90;;;;;;;20.62;48.44;101280.59;688055;28;1224;-79
2022/07/07 01:37:05;;;;;;;4.30;3.80;;;;;;;20.61;48.44;101275.28;690365;28;1198;-79
2022/07/07 01:37:26;;;;;;;5.28;3.92;;;;;;;20.69;48.43;101292.03;687530;28;1273;-79
2022/07/07 01:37:48;;;;;;;5.43;3.67;;;;;;;20.65;48.55;101282.34;686809;28;1670;-79
2022/07/07 01:38:09;;;;;;;5.25;3.80;;;;;;;20.67;48.59;101285.88;690608;28;1251;-79
2022/07/07 01:38:30;;;;;;;4.77;3.67;;;;;;;20.58;48.56;101268.22;688048;28;1265;-79
2022/07/07 01:38:50;;;;;;;4.57;3.78;;;;;;;20.61;48.51;101272.66;688047;28;1328;-79
2022/07/07 01:39:11;;;;;;;4.30;3.50;;;;;;;20.62;48.52;101274.41;693453;28;1208;-80
2022/07/07 01:39:32;;;;;;;3.97;3.57;;;;;;;20.65;48.48;101275.25;687407;28;1295;-80
2022/07/07 01:39:53;;;;;;;3.85;3.45;;;;;;;20.64;48.46;101273.50;690610;28;1604;-80
2022/07/07 01:40:14;;;;;;;3.80;3.50;;;;;;;20.66;48.62;101278.81;689933;28;1152;-79
2022/07/07 01:40:35;;;;;;;3.70;3.40;;;;;;;20.64;48.60;101273.50;693366;28;1359;-79
2022/07/07 01:40:55;;;;;;;3.88;3.50;;;;;;;20.70;48.53;101280.56;693431;28;1316;-80
2022/07/07 01:41:16;;;;;;;5.45;3.50;;;;;;;20.65;48.50;101274.41;690740;28;1154;-79
2022/07/07 01:41:37;;;;;;;5.90;3.60;;;;;;;20.65;48.37;101274.41;687959;28;1103;-79
2022/07/07 01:41:58;;;;;;;4.80;3.70;;;;;;;20.62;48.42;101270.00;692511;28;1335;-79
2022/07/07 01:42:18;;;;;;;4.07;3.70;;;;;;;20.66;48.58;101268.19;690599;28;1331;-79
2022/07/07 01:42:44;;;;;;;4.07;3.67;;;;;;;20.65;48.39;101258.50;687989;28;1220;-79
2022/07/07 01:43:05;;;;;;;4.18;3.67;;;;;;;20.64;48.38;101267.31;690786;28;1182;-80
2022/07/07 01:43:26;;;;;;;4.77;3.83;;;;;;;20.69;48.50;101276.13;690572;28;1302;-79
2022/07/07 01:43:46;;;;;;;4.85;3.90;;;;;;;20.69;48.42;101271.72;690701;28;1288;-79
2022/07/07 01:44:08;;;;;;;4.50;3.90;;;;;;;20.70;48.23;101264.66;693427;28;1384;-80
2022/07/07 01:44:44;;;;;;;4.07;3.67;;;;;;;20.73;48.31;101266.41;693163;28;1069;-79